• Join FlightAware (Why Join?)
  • Login
  • US Flag 
08:31PM EDT


 

Airport Tracker/Info


-or-


 

Live Flight TrackerFlight Track Log ✈ N101FG ✈ 26 Feb 2014 ✈ KVRB - KTLH

Flight Track Log - Related Links

Times and Time Zones

All times are in EST time to prevent confusion due to time zone crossing. See the N101FG flight status page for this flight to view local times or setup timezone preferences in your user account.

Time Position Orientation Groundspeed Altitude Reporting Facility
EST Latitude Longitude Course Direction KTS MPH feet Rate Location/Type
09:16PM 27.6941 -80.5988 283° West 214 246 6,900  Level FlightAware ADS-B (KMCO)
09:16PM 27.6990 -80.6224 283° West 220 253 7,600 2,100 Climbing FlightAware ADS-B (KMCO)
09:16PM 27.7036 -80.6445 283° West 220 253 8,300 1,920 Climbing FlightAware ADS-B (KMCO)
09:19PM 27.7360 -80.7972 284° West 215 247 12,700 1,740 Climbing FlightAware ADS-B (KMCO)
09:20PM 27.7499 -80.8660 283° West 209 241 14,300 1,740 Climbing FlightAware ADS-B (KMCO)
09:20PM 27.7567 -80.8962 283° West 194 223 15,400 1,680 Climbing FlightAware ADS-B (KMCO)
09:21PM 27.7650 -80.9358 284° West 197 227 16,300 1,260 Climbing FlightAware ADS-B (KMCO)
09:21PM 27.7562 -80.8937 282° West 194 223 16,600 1,020 Climbing FlightAware ADS-B (ZSAM / XMN)
09:22PM 27.7762 -80.9882 283° West 209 241 17,200 1,080 Climbing FlightAware ADS-B (KMCO)
09:22PM 27.7835 -81.0300 283° West 213 245 18,000 1,140 Climbing FlightAware ADS-B (KMCO)
09:23PM 27.7911 -81.0652 284° West 213 245 18,600 1,200 Climbing FlightAware ADS-B (KMCO)
09:23PM 27.8006 -81.1073 284° West 213 245 19,400 1,020 Climbing FlightAware ADS-B (KMCO)
09:24PM 27.8156 -81.1742 284° West 225 259 20,300 960 Climbing FlightAware ADS-B (KMCO)
09:25PM 27.8228 -81.2078 282° West 223 257 20,900 1,140 Climbing FlightAware ADS-B (KMCO)
09:25PM 27.8290 -81.2426 282° West 226 260 21,500 1,080 Climbing FlightAware ADS-B (ZSAM / XMN)
09:26PM 27.8384 -81.2898 283° West 225 259 22,200 1,020 Climbing FlightAware ADS-B (KMCO)
09:27PM 27.8475 -81.3346 283° West 226 260 22,900 1,020 Climbing FlightAware ADS-B (KMCO)
09:27PM 27.8550 -81.3693 284° West 226 260 23,400 1,080 Climbing FlightAware ADS-B (KMCO)
09:27PM 27.8567 -81.3774 284° West 226 260 23,600 1,200 Climbing FlightAware ADS-B (ZSAM / XMN)
09:28PM 27.8639 -81.4137 282° West 223 257 24,200 900 Climbing FlightAware ADS-B (KMCO)
09:29PM 27.8737 -81.4622 282° West 227 261 24,700 840 Climbing FlightAware ADS-B (KMCO)
09:29PM 27.8829 -81.5074 285° West 226 260 25,400 1,020 Climbing FlightAware ADS-B (KMCO)
09:30PM 27.8909 -81.5419 283° West 225 259 25,900 900 Climbing FlightAware ADS-B (KMCO)
09:30PM 27.8978 -81.5762 283° West 225 259 26,300 900 Climbing FlightAware ADS-B (KMCO)
09:30PM 27.8998 -81.5866 283° West 226 260 26,500 900 Climbing FlightAware ADS-B (ZSAM / XMN)
09:31PM 27.9071 -81.6228 283° West 230 265 26,900 720 Climbing FlightAware ADS-B (KMCO)
09:32PM 27.9165 -81.6696 283° West 233 268 27,400 780 Climbing FlightAware ADS-B (KMCO)
09:32PM 27.9244 -81.7082 283° West 234 269 27,900 540 Climbing FlightAware ADS-B (ZSAM / XMN)
09:33PM 27.9323 -81.7473 283° West 246 283 28,000 60 Climbing FlightAware ADS-B (ZSAM / XMN)
09:34PM 27.9472 -81.8208 283° West 268 308 28,000  Level FlightAware ADS-B (KMCO)
09:34PM 27.9556 -81.8624 283° West 276 318 28,000  Level FlightAware ADS-B (KMCO)
09:35PM 27.9674 -81.9204 283° West 284 327 28,000  Level FlightAware ADS-B (KMCO)
09:35PM 27.9789 -81.9777 283° West 286 329 28,000  Level FlightAware ADS-B (KMCO)
09:36PM 27.9884 -82.0059 299° West 293 337 28,000  Level FlightAware ADS-B (KMCO)
09:36PM 28.0045 -82.0303 313° West 302 348 28,000  Level FlightAware ADS-B (KMCO)
09:37PM 28.0377 -82.0615 321° Northwest 307 353 28,000  Level FlightAware ADS-B (KMCO)
09:37PM 28.0711 -82.0932 320° Northwest 307 353 28,000  Level FlightAware ADS-B (KMCO)
09:38PM 28.1136 -82.1336 320° Northwest 305 351 28,000  Level FlightAware ADS-B (KMCO)
09:38PM 28.1468 -82.1650 320° Northwest 300 345 28,000  Level FlightAware ADS-B (KMCO)
09:39PM 28.1984 -82.2137 320° Northwest 296 341 28,000  Level FlightAware ADS-B (KMCO)
09:40PM 28.2373 -82.2505 320° Northwest 296 341 28,000 -120 Level FlightAware ADS-B (KMCO)
09:41PM 28.2938 -82.3040 320° Northwest 298 343 27,900 -420 Descending FlightAware ADS-B (KMCO)
09:41PM 28.3260 -82.3346 320° Northwest 306 352 27,500 -720 Descending FlightAware ADS-B (KMCO)
09:42PM 28.3709 -82.3772 320° Northwest 313 360 27,100 -660 Descending FlightAware ADS-B (KMCO)
09:42PM 28.4130 -82.4171 320° Northwest 317 365 26,700 -480 Descending FlightAware ADS-B (KMCO)
09:44PM 28.5468 -82.5441 320° Northwest 312 359 26,000 -300 Descending FlightAware ADS-B (KMCO)
09:45PM 28.5949 -82.5899 320° Northwest 309 356 26,000  Level FlightAware ADS-B (KMCO)
09:46PM 28.6478 -82.6405 320° Northwest 305 351 26,000  Level FlightAware ADS-B (KMCO)
09:47PM 28.6903 -82.6842 320° Northwest 303 349 26,000  Level Jacksonville Center
09:48PM 28.7550 -82.7458 320° Northwest 303 349 26,000  Level Jacksonville Center
09:49PM 28.8197 -82.8072 320° Northwest 303 349 26,000 -60 Level Jacksonville Center
09:50PM 28.8844 -82.8689 320° Northwest 303 349 25,900 -420 Descending Jacksonville Center
09:51PM 28.9492 -82.9331 319° Northwest 303 349 25,200 -720 Descending Jacksonville Center
09:52PM 29.0222 -83.0019 320° Northwest 303 349 24,500 -600 Descending Jacksonville Center
09:53PM 29.0911 -83.0683 320° Northwest 308 354 24,000 -360 Descending Jacksonville Center
09:54PM 29.1578 -83.1350 319° Northwest 313 360 23,800 -420 Descending Jacksonville Center
09:55PM 29.2078 -83.2161 305° West 308 354 23,200 -420 Descending Jacksonville Center
09:56PM 29.2511 -83.3019 300° West 313 360 23,000 -120 Descending Jacksonville Center
09:57PM 29.2989 -83.3831 304° West 308 354 23,000  Level Jacksonville Center
09:58PM 29.3592 -83.4525 315° West 308 354 23,000 -420 Level Jacksonville Center
09:59PM 29.4319 -83.5150 323° Northwest 308 354 22,200 -1,200 Descending Jacksonville Center
10:00PM 29.5089 -83.5822 323° Northwest 329 379 20,700 -1,740 Descending Jacksonville Center
10:01PM 29.5858 -83.6472 324° Northwest 340 391 18,800 -1,860 Descending Jacksonville Center
10:02PM 29.6522 -83.7050 323° Northwest 329 379 17,000 -1,380 Descending Jacksonville Center
10:03PM 29.7103 -83.7533 324° Northwest 292 336 16,100 -1,440 Descending Jacksonville Center
10:04PM 29.7706 -83.8089 321° Northwest 282 325 14,200 -1,320 Descending Jacksonville Center
10:05PM 29.8392 -83.8456 335° Northwest 265 305 13,500 -1,320 Descending Jacksonville Center
10:06PM 29.9100 -83.8775 339° North 265 305 11,600 -1,980 Descending Jacksonville Center
10:07PM 29.9700 -83.9139 332° Northwest 257 296 9,600 -2,100 Descending Jacksonville Center
10:08PM 30.0050 -83.9814 301° West 234 269 7,500 -2,160 Descending Jacksonville Center
10:09PM 30.0358 -84.0467 299° West 234 269 5,300 -2,040 Descending Jacksonville Center
10:10PM 30.0644 -84.1094 298° West 229 264 3,500 -1,200 Descending Jacksonville Center
10:11PM 30.0931 -84.1722 298° West 218 251 3,000 -360 Descending Jacksonville Center
10:12PM 30.1194 -84.2372 295° West 223 257 2,800 -240 Descending Jacksonville Center
10:14PM 30.2421 -84.2874 319° Northwest  Level Estimated
10:21PM 30.3833 -84.3500 311° West  Level FlightAware Approximate
10:22PM 30.3967 -84.3509 311° West  Level Estimated
10:23PM 30.3967 -84.3509 311° West  Level Estimated
10:24PM 30.3967 -84.3509 311° West  Level Estimated
10:25PM 30.3967 -84.3509 311° West  Level Estimated
10:26PM 30.3967 -84.3509 311° West  Level Estimated
10:27PM 30.3967 -84.3509 311° West  Level Estimated